createdAt,value
2017-07-17T00:01:07.668Z,99.90
2017-07-17T00:03:36.050Z,99.90
2017-07-17T00:06:04.433Z,99.90
2017-07-17T00:08:33.138Z,99.90
2017-07-17T00:11:02.288Z,99.90
2017-07-17T00:13:30.678Z,99.90
2017-07-17T00:15:59.497Z,99.90
2017-07-17T00:18:28.656Z,99.90
2017-07-17T00:20:57.060Z,99.90
2017-07-17T00:23:25.670Z,99.90
2017-07-17T00:25:54.051Z,99.90
2017-07-17T00:28:22.441Z,99.90
2017-07-17T00:30:51.224Z,99.90
2017-07-17T00:33:19.617Z,99.90
2017-07-17T00:35:48.015Z,99.90
2017-07-17T00:38:16.652Z,99.90
2017-07-17T00:40:45.061Z,99.90
2017-07-17T00:43:13.445Z,99.90
2017-07-17T00:45:42.034Z,99.90
2017-07-17T00:48:10.413Z,99.90
2017-07-17T00:50:38.798Z,99.90
2017-07-17T00:53:07.251Z,99.90
2017-07-17T00:55:35.291Z,99.90
2017-07-17T00:58:04.449Z,99.90
2017-07-17T01:00:32.786Z,99.90
2017-07-17T01:03:01.165Z,99.90
2017-07-17T01:05:29.564Z,99.90
2017-07-17T01:07:58.202Z,99.90
2017-07-17T01:10:27.367Z,99.90
2017-07-17T01:12:55.760Z,99.90
2017-07-17T01:15:24.373Z,99.90
2017-07-17T01:17:52.754Z,99.90
2017-07-17T01:20:21.152Z,99.90
2017-07-17T01:22:49.656Z,99.90
2017-07-17T01:25:18.046Z,99.90
2017-07-17T01:27:46.436Z,99.90
2017-07-17T01:30:14.879Z,99.90
2017-07-17T01:32:43.289Z,99.90
2017-07-17T01:35:11.680Z,99.90
2017-07-17T01:37:40.474Z,99.90
2017-07-17T01:40:09.650Z,99.90
2017-07-17T01:42:38.045Z,99.90
2017-07-17T01:45:07.240Z,99.90
2017-07-17T01:47:36.383Z,99.90
2017-07-17T01:50:04.798Z,99.90
2017-07-17T01:52:33.223Z,99.90
2017-07-17T01:55:01.613Z,99.90
2017-07-17T01:57:29.672Z,99.90
2017-07-17T01:59:58.223Z,99.90
2017-07-17T02:02:27.369Z,99.90
2017-07-17T02:04:55.781Z,99.90
2017-07-17T02:07:23.992Z,99.90
2017-07-17T02:09:52.381Z,99.90
2017-07-17T02:12:20.757Z,99.90
2017-07-17T02:14:49.205Z,99.90
2017-07-17T02:17:17.594Z,99.90
2017-07-17T02:19:46.748Z,99.90
2017-07-17T02:22:15.363Z,99.90
2017-07-17T02:24:43.736Z,99.90
2017-07-17T02:27:12.111Z,99.90
2017-07-17T02:29:40.659Z,99.90
2017-07-17T02:32:09.045Z,99.90
2017-07-17T02:34:37.448Z,99.90
2017-07-17T02:37:05.896Z,99.90
2017-07-17T02:39:34.414Z,99.90
2017-07-17T02:42:03.800Z,99.90
2017-07-17T02:44:32.250Z,99.90
2017-07-17T02:47:00.649Z,99.90
2017-07-17T02:49:29.060Z,99.90
2017-07-17T02:51:58.293Z,99.90
2017-07-17T02:54:26.674Z,99.90
2017-07-17T02:56:55.065Z,99.90
2017-07-17T02:59:23.709Z,99.90
2017-07-17T03:01:52.865Z,99.90
2017-07-17T03:04:21.296Z,99.90
2017-07-17T03:06:49.940Z,99.90
2017-07-17T03:09:18.333Z,99.90
2017-07-17T03:11:47.520Z,99.90
2017-07-17T03:14:16.714Z,99.90
2017-07-17T03:16:45.105Z,99.90
2017-07-17T03:19:14.276Z,99.90
2017-07-17T03:21:42.693Z,99.90
2017-07-17T03:24:16.776Z,99.90
2017-07-17T03:26:45.186Z,99.90
2017-07-17T03:29:13.564Z,99.90
2017-07-17T03:31:42.715Z,99.90
2017-07-17T03:34:11.329Z,99.90
2017-07-17T03:36:40.487Z,99.90
2017-07-17T03:39:08.883Z,99.90
2017-07-17T03:41:37.292Z,99.90
2017-07-17T03:44:06.448Z,99.90
2017-07-17T03:46:35.115Z,99.90
2017-07-17T03:49:03.626Z,99.90
2017-07-17T03:51:32.090Z,99.90
2017-07-17T03:54:00.469Z,99.90
2017-07-17T03:56:29.578Z,99.90
2017-07-17T03:58:57.976Z,99.90
2017-07-17T04:01:26.381Z,99.90
2017-07-17T04:03:54.824Z,99.90
2017-07-17T04:06:23.288Z,99.90
2017-07-17T04:08:51.698Z,99.90
2017-07-17T04:11:21.319Z,99.90
2017-07-17T04:13:49.705Z,99.90
2017-07-17T04:16:18.093Z,99.90
2017-07-17T04:18:46.738Z,99.90
2017-07-17T04:21:15.894Z,99.90
2017-07-17T04:23:44.277Z,99.90
2017-07-17T04:26:12.808Z,99.90
2017-07-17T04:28:41.204Z,99.90
2017-07-17T04:31:09.610Z,99.90
2017-07-17T04:33:38.260Z,99.90
2017-07-17T04:36:06.665Z,99.90
2017-07-17T04:38:35.073Z,99.90
2017-07-17T04:41:03.692Z,99.90
2017-07-17T04:43:32.101Z,99.90
2017-07-17T04:46:00.521Z,99.90
2017-07-17T04:48:29.045Z,99.90
2017-07-17T04:50:57.451Z,99.90
2017-07-17T04:53:25.846Z,99.90
2017-07-17T04:55:54.264Z,99.90
2017-07-17T04:58:22.684Z,99.90
2017-07-17T05:00:51.313Z,99.90
2017-07-17T05:03:19.735Z,99.90
2017-07-17T05:05:48.136Z,99.90
2017-07-17T05:08:16.526Z,99.90
2017-07-17T05:10:45.143Z,99.90
2017-07-17T05:13:14.304Z,99.90
2017-07-17T05:15:42.693Z,99.90
2017-07-17T05:18:11.119Z,99.90
2017-07-17T05:20:39.494Z,99.90
2017-07-17T05:23:07.891Z,99.90
2017-07-17T05:25:36.542Z,99.90
2017-07-17T05:28:04.953Z,99.90
2017-07-17T05:30:33.363Z,99.90
2017-07-17T05:33:01.911Z,99.90
2017-07-17T05:35:30.307Z,99.90
2017-07-17T05:37:58.714Z,99.90
2017-07-17T05:40:27.535Z,99.90
2017-07-17T05:42:55.945Z,99.90
2017-07-17T05:45:24.352Z,99.90
2017-07-17T05:47:52.863Z,99.90
2017-07-17T05:50:21.273Z,99.90
2017-07-17T05:52:49.660Z,99.90
2017-07-17T05:55:18.305Z,99.90
2017-07-17T05:57:46.693Z,99.90
2017-07-17T06:00:15.086Z,99.90
2017-07-17T06:02:43.607Z,99.90
2017-07-17T06:05:12.018Z,99.90
2017-07-17T06:07:41.167Z,99.90
2017-07-17T06:10:09.803Z,99.90
2017-07-17T06:12:38.213Z,99.90
2017-07-17T06:15:06.281Z,99.90
2017-07-17T06:17:35.049Z,99.90
2017-07-17T06:20:03.442Z,99.90
2017-07-17T06:22:31.827Z,99.90
2017-07-17T06:25:00.276Z,99.90
2017-07-17T06:27:28.666Z,99.90
2017-07-17T06:29:57.087Z,99.90
2017-07-17T06:32:25.543Z,99.90
2017-07-17T06:34:53.956Z,99.90
2017-07-17T06:37:22.344Z,99.90
2017-07-17T06:39:50.777Z,99.90
2017-07-17T06:42:19.161Z,99.90
2017-07-17T06:44:47.555Z,99.90
2017-07-17T06:47:15.975Z,99.90
2017-07-17T06:49:45.130Z,99.90
2017-07-17T06:52:13.518Z,99.90
2017-07-17T06:54:42.522Z,99.90
2017-07-17T06:57:11.700Z,99.90
2017-07-17T06:59:40.097Z,99.90
2017-07-17T07:02:09.518Z,99.90
2017-07-17T07:04:38.682Z,99.90
2017-07-17T07:07:07.842Z,99.90
2017-07-17T07:09:36.352Z,99.90
2017-07-17T07:12:04.765Z,99.90
2017-07-17T07:14:33.938Z,99.90
2017-07-17T07:17:02.525Z,99.90
2017-07-17T07:19:31.707Z,99.90
2017-07-17T07:22:00.169Z,99.90
2017-07-17T07:24:28.725Z,99.90
2017-07-17T07:26:57.138Z,99.90
2017-07-17T07:29:25.760Z,99.90
2017-07-17T07:31:54.998Z,99.90
2017-07-17T07:34:23.222Z,99.90
2017-07-17T07:36:51.654Z,99.90
2017-07-17T07:39:20.097Z,99.90
2017-07-17T07:41:49.252Z,99.90
2017-07-17T07:44:17.641Z,99.90
2017-07-17T07:46:46.269Z,99.90
2017-07-17T07:49:14.658Z,99.90
2017-07-17T07:51:43.048Z,99.90
2017-07-17T07:54:11.581Z,99.90
2017-07-17T07:56:39.976Z,99.90
2017-07-17T07:59:09.131Z,99.90
2017-07-17T08:01:37.971Z,99.90
2017-07-17T08:04:06.370Z,99.90
2017-07-17T08:06:34.777Z,99.90
2017-07-17T08:09:02.999Z,99.90
2017-07-17T08:11:31.387Z,99.90
2017-07-17T08:13:59.800Z,99.90
2017-07-17T08:16:28.407Z,99.90
2017-07-17T08:18:56.788Z,99.90
2017-07-17T08:21:25.186Z,99.90
2017-07-17T08:23:54.527Z,99.90
2017-07-17T08:26:22.923Z,99.90
2017-07-17T08:28:51.344Z,99.90
2017-07-17T08:31:20.519Z,99.90
2017-07-17T08:33:49.027Z,99.90
2017-07-17T08:36:18.180Z,99.90
2017-07-17T08:38:46.820Z,99.90
2017-07-17T08:41:15.217Z,99.90
2017-07-17T08:43:43.603Z,99.90
2017-07-17T08:46:12.252Z,99.90
2017-07-17T08:48:40.637Z,99.90
2017-07-17T08:51:09.022Z,99.90
2017-07-17T08:53:37.537Z,99.90
2017-07-17T08:56:05.941Z,99.90
2017-07-17T08:58:34.640Z,99.90
2017-07-17T09:01:03.123Z,99.90
2017-07-17T09:03:32.274Z,99.90
2017-07-17T09:06:00.698Z,99.90
2017-07-17T09:08:29.984Z,99.90
2017-07-17T09:10:58.634Z,99.90
2017-07-17T09:13:27.022Z,99.90
2017-07-17T09:15:55.465Z,99.90
2017-07-17T09:18:23.960Z,99.90
2017-07-17T09:20:52.370Z,99.90
2017-07-17T09:23:20.983Z,99.90
2017-07-17T09:25:50.142Z,99.90
2017-07-17T09:28:18.573Z,99.90
2017-07-17T09:30:47.243Z,99.90
2017-07-17T09:33:16.403Z,99.90
2017-07-17T09:35:44.793Z,99.90
2017-07-17T09:38:13.302Z,99.90
2017-07-17T09:40:42.490Z,99.90
2017-07-17T09:43:11.850Z,99.90
2017-07-17T09:45:40.353Z,99.90
2017-07-17T09:48:09.529Z,99.90
2017-07-17T09:50:38.177Z,99.90
2017-07-17T09:53:06.772Z,99.90
2017-07-17T09:55:35.147Z,99.90
2017-07-17T09:58:03.536Z,99.90
2017-07-17T10:00:31.805Z,99.90
2017-07-17T10:03:00.286Z,99.90
2017-07-17T10:05:28.674Z,99.90
2017-07-17T10:07:57.142Z,99.90
2017-07-17T10:10:25.557Z,99.90
2017-07-17T10:12:53.931Z,99.90
2017-07-17T10:15:22.389Z,99.90
2017-07-17T10:17:50.784Z,99.90
2017-07-17T10:20:19.185Z,99.90
2017-07-17T10:22:48.398Z,99.90
2017-07-17T10:25:17.597Z,99.90
2017-07-17T10:27:45.992Z,99.90
2017-07-17T10:30:14.532Z,99.90
2017-07-17T10:32:42.922Z,99.90
2017-07-17T10:35:11.295Z,99.90
2017-07-17T10:37:39.701Z,99.90
2017-07-17T10:40:08.113Z,99.90
2017-07-17T10:42:36.511Z,99.90
2017-07-17T10:45:05.155Z,99.90
2017-07-17T10:47:33.567Z,99.90
2017-07-17T10:50:02.136Z,99.90
2017-07-17T10:52:30.571Z,99.90
2017-07-17T10:54:59.749Z,99.90
2017-07-17T10:57:28.166Z,99.90
2017-07-17T10:59:56.659Z,99.90
2017-07-17T11:02:25.048Z,99.90
2017-07-17T11:04:53.438Z,99.90
2017-07-17T11:07:22.068Z,99.90
2017-07-17T11:09:51.238Z,99.90
2017-07-17T11:12:19.636Z,99.90
2017-07-17T11:14:48.813Z,99.90
2017-07-17T11:17:17.210Z,99.90
2017-07-17T11:19:46.372Z,99.90
2017-07-17T11:22:14.992Z,99.90
2017-07-17T11:24:44.152Z,99.90
2017-07-17T11:27:12.542Z,99.90
2017-07-17T11:29:41.153Z,99.90
2017-07-17T11:32:10.312Z,99.90
2017-07-17T11:34:38.700Z,99.90
2017-07-17T11:37:07.313Z,99.90
2017-07-17T11:39:36.478Z,99.90
2017-07-17T11:42:04.875Z,99.90
2017-07-17T11:44:34.282Z,99.90
2017-07-17T11:57:19.030Z,99.90
2017-07-17T11:59:47.819Z,99.90
2017-07-17T12:02:15.856Z,99.90
2017-07-17T12:04:45.008Z,99.90
2017-07-17T12:07:13.445Z,99.90
2017-07-17T12:09:43.784Z,99.90
2017-07-17T12:12:12.176Z,99.90
2017-07-17T12:14:40.633Z,99.90
2017-07-17T12:17:09.250Z,99.90
2017-07-17T12:19:37.635Z,99.90
2017-07-17T12:22:06.265Z,99.90
2017-07-17T12:24:34.667Z,99.90
2017-07-17T12:27:03.067Z,99.90
2017-07-17T12:29:31.933Z,99.90
2017-07-17T12:32:00.323Z,99.90
2017-07-17T12:34:28.725Z,99.90
2017-07-17T12:36:57.261Z,99.90
2017-07-17T12:39:25.655Z,99.20
2017-07-17T12:41:54.058Z,98.70
2017-07-17T12:44:22.703Z,99.70
2017-07-17T12:46:51.882Z,99.90
2017-07-17T12:49:20.526Z,99.90
2017-07-17T12:51:49.116Z,99.90
2017-07-17T12:54:17.326Z,99.90
2017-07-17T12:56:46.497Z,99.90
2017-07-17T12:59:15.001Z,99.90
2017-07-17T13:01:44.173Z,99.90
2017-07-17T13:04:12.577Z,99.90
2017-07-17T13:06:41.806Z,99.90
2017-07-17T13:09:10.212Z,99.90
2017-07-17T13:11:38.601Z,99.90
2017-07-17T13:14:07.079Z,99.90
2017-07-17T13:16:35.470Z,99.90
2017-07-17T13:19:03.891Z,99.90
2017-07-17T13:21:32.354Z,99.90
2017-07-17T13:24:00.900Z,99.90
2017-07-17T13:26:29.304Z,99.90
2017-07-17T13:28:57.912Z,99.90
2017-07-17T13:31:26.323Z,99.90
2017-07-17T13:33:54.721Z,99.90
2017-07-17T13:36:23.162Z,99.40
2017-07-17T13:38:51.571Z,99.90
2017-07-17T13:41:19.980Z,99.50
2017-07-17T13:43:49.313Z,99.60
2017-07-17T13:46:17.725Z,99.90
2017-07-17T13:48:46.117Z,99.90
2017-07-17T13:51:14.526Z,99.90
2017-07-17T13:53:43.679Z,98.90
2017-07-17T13:56:12.079Z,98.90
2017-07-17T13:58:40.606Z,98.30
2017-07-17T14:01:08.993Z,97.10
2017-07-17T14:03:37.407Z,97.40
2017-07-17T14:06:05.873Z,96.60
2017-07-17T14:08:34.291Z,96.10
2017-07-17T14:11:03.450Z,98.10
2017-07-17T14:13:31.880Z,98.10
2017-07-17T14:16:01.040Z,99.10
2017-07-17T14:18:29.428Z,99.10
2017-07-17T14:20:57.831Z,99.30
2017-07-17T14:23:26.220Z,99.40
2017-07-17T14:25:54.610Z,98.10
2017-07-17T14:28:23.030Z,97.50
2017-07-17T14:30:51.435Z,96.60
2017-07-17T14:33:19.836Z,97.00
2017-07-17T14:35:48.276Z,95.90
2017-07-17T14:38:16.707Z,95.60
2017-07-17T14:40:45.109Z,95.70
2017-07-17T14:43:13.778Z,96.30
2017-07-17T14:45:42.178Z,97.10
2017-07-17T14:48:10.569Z,97.80
2017-07-17T14:50:39.154Z,94.60
2017-07-17T14:53:07.552Z,94.70
2017-07-17T14:55:35.934Z,95.70
2017-07-17T14:58:05.547Z,94.90
2017-07-17T15:00:33.941Z,94.90
2017-07-17T15:03:02.340Z,94.10
2017-07-17T15:05:30.759Z,95.10
2017-07-17T15:07:59.154Z,95.10
2017-07-17T15:10:28.352Z,94.90
2017-07-17T15:12:56.963Z,94.90
2017-07-17T15:15:25.351Z,94.40
2017-07-17T15:17:53.746Z,92.60
2017-07-17T15:20:22.272Z,93.20
2017-07-17T15:22:51.429Z,92.40
2017-07-17T15:25:19.839Z,92.40
2017-07-17T15:27:49.046Z,92.20
2017-07-17T15:30:18.216Z,92.50
2017-07-17T15:32:46.605Z,92.60
2017-07-17T15:35:15.009Z,92.60
2017-07-17T15:37:43.427Z,93.10
2017-07-17T15:40:11.850Z,92.90
2017-07-17T15:42:41.047Z,91.00
2017-07-17T15:45:09.476Z,91.00
2017-07-17T15:47:37.879Z,91.30
2017-07-17T15:50:06.318Z,91.90
2017-07-17T15:52:34.531Z,91.60
2017-07-17T15:55:02.916Z,91.40
2017-07-17T15:57:31.339Z,90.90
2017-07-17T15:59:59.720Z,90.00
2017-07-17T16:02:28.123Z,90.70
2017-07-17T16:04:56.531Z,92.00
2017-07-17T16:07:24.950Z,91.10
2017-07-17T16:09:54.012Z,91.20
2017-07-17T16:12:22.558Z,91.30
2017-07-17T16:14:50.937Z,89.40
2017-07-17T16:17:19.351Z,89.20
2017-07-17T16:19:47.754Z,87.00
2017-07-17T16:22:16.166Z,86.90
2017-07-17T16:24:44.591Z,88.60
2017-07-17T16:27:12.992Z,86.60
2017-07-17T16:29:41.394Z,87.30
2017-07-17T16:32:09.766Z,86.40
2017-07-17T16:34:38.260Z,84.90
2017-07-17T16:37:06.663Z,83.80
2017-07-17T16:39:35.079Z,85.30
2017-07-17T16:42:03.511Z,84.70
2017-07-17T16:44:31.905Z,82.50
2017-07-17T16:47:00.330Z,81.60
2017-07-17T16:49:28.750Z,81.20
2017-07-17T16:51:57.139Z,80.70
2017-07-17T16:54:25.529Z,83.50
2017-07-17T16:56:53.937Z,82.20
2017-07-17T16:59:22.334Z,82.90
2017-07-17T17:01:50.784Z,82.60
2017-07-17T17:04:19.208Z,84.00
2017-07-17T17:06:47.637Z,84.20
2017-07-17T17:09:16.787Z,82.30
2017-07-17T17:11:45.212Z,82.90
2017-07-17T17:14:14.374Z,82.80
2017-07-17T17:16:42.766Z,82.80
2017-07-17T17:19:11.177Z,82.80
2017-07-17T17:21:39.605Z,84.00
2017-07-17T17:24:08.012Z,84.40
2017-07-17T17:26:36.442Z,84.50
2017-07-17T17:29:04.878Z,85.50
2017-07-17T17:31:34.053Z,82.90
2017-07-17T17:34:02.520Z,82.80
2017-07-17T17:36:30.917Z,84.40
2017-07-17T17:38:59.309Z,84.60
2017-07-17T17:41:27.715Z,85.80
2017-07-17T17:43:56.122Z,86.70
2017-07-17T17:46:24.554Z,85.40
2017-07-17T17:48:52.984Z,85.10
2017-07-17T17:51:21.404Z,82.30
2017-07-17T17:53:50.573Z,84.40
2017-07-17T17:56:19.661Z,83.50
2017-07-17T17:58:48.046Z,84.70
2017-07-17T18:01:16.441Z,83.90
2017-07-17T18:03:44.873Z,83.50
2017-07-17T18:06:13.290Z,81.90
2017-07-17T18:08:41.666Z,82.90
2017-07-17T18:11:10.115Z,82.80
2017-07-17T18:13:38.516Z,82.20
2017-07-17T18:16:06.941Z,81.90
2017-07-17T18:18:35.374Z,82.30
2017-07-17T18:21:03.772Z,82.70
2017-07-17T18:23:32.170Z,82.10
2017-07-17T18:26:00.588Z,81.40
2017-07-17T18:28:28.985Z,82.70
2017-07-17T18:30:57.374Z,82.20
2017-07-17T18:33:25.800Z,82.00
2017-07-17T18:35:54.206Z,82.10
2017-07-17T18:38:22.610Z,83.40
2017-07-17T18:40:51.012Z,83.10
2017-07-17T18:43:20.188Z,84.30
2017-07-17T18:45:48.585Z,84.10
2017-07-17T18:48:16.999Z,83.00
2017-07-17T18:50:45.399Z,84.70
2017-07-17T18:53:13.795Z,84.50
2017-07-17T18:55:42.207Z,83.40
2017-07-17T18:58:10.599Z,83.20
2017-07-17T19:00:39.016Z,83.60
2017-07-17T19:03:07.522Z,83.00
2017-07-17T19:05:35.915Z,83.00
2017-07-17T19:08:05.167Z,84.50
2017-07-17T19:10:33.625Z,84.50
2017-07-17T19:13:02.016Z,83.40
2017-07-17T19:15:30.071Z,83.60
2017-07-17T19:17:58.495Z,84.00
2017-07-17T19:20:26.910Z,84.50
2017-07-17T19:22:56.097Z,85.10
2017-07-17T19:25:24.695Z,85.20
2017-07-17T19:27:53.108Z,85.80
2017-07-17T19:30:21.505Z,85.90
2017-07-17T19:32:49.947Z,85.90
2017-07-17T19:35:18.354Z,86.60
2017-07-17T19:37:46.761Z,86.50
2017-07-17T19:40:15.198Z,86.80
2017-07-17T19:42:43.595Z,87.00
2017-07-17T19:45:11.999Z,87.30
2017-07-17T19:47:42.886Z,88.40
2017-07-17T19:50:11.290Z,88.30
2017-07-17T19:52:39.696Z,87.90
2017-07-17T19:55:08.112Z,88.10
2017-07-17T19:57:36.511Z,88.80
2017-07-17T20:00:04.947Z,89.00
2017-07-17T20:02:33.372Z,89.30
2017-07-17T20:05:01.770Z,89.00
2017-07-17T20:07:31.118Z,89.20
2017-07-17T20:09:59.544Z,88.80
2017-07-17T20:12:27.936Z,89.10
2017-07-17T20:14:56.341Z,89.40
2017-07-17T20:17:24.761Z,89.40
2017-07-17T20:19:53.147Z,88.60
2017-07-17T20:22:21.538Z,88.70
2017-07-17T20:24:50.631Z,90.00
2017-07-17T20:27:19.063Z,88.10
2017-07-17T20:29:47.439Z,88.30
2017-07-17T20:32:15.859Z,88.50
2017-07-17T20:34:44.250Z,88.30
2017-07-17T20:37:12.648Z,87.80
2017-07-17T20:39:41.055Z,88.00
2017-07-17T20:42:09.458Z,88.10
2017-07-17T20:44:37.879Z,87.50
2017-07-17T20:47:06.354Z,87.30
2017-07-17T20:49:34.758Z,87.80
2017-07-17T20:52:03.920Z,87.50
2017-07-17T20:54:32.370Z,87.50
2017-07-17T20:57:00.790Z,87.80
2017-07-17T20:59:29.194Z,88.30
2017-07-17T21:01:58.370Z,88.50
2017-07-17T21:04:26.772Z,88.50
2017-07-17T21:06:55.186Z,87.80
2017-07-17T21:09:23.599Z,88.30
2017-07-17T21:11:52.003Z,88.30
2017-07-17T21:14:21.203Z,88.00
2017-07-17T21:16:50.377Z,87.30
2017-07-17T21:19:18.769Z,87.10
2017-07-17T21:21:47.921Z,87.30
2017-07-17T21:24:16.327Z,87.30
2017-07-17T21:26:44.740Z,86.90
2017-07-17T21:29:13.149Z,87.50
2017-07-17T21:31:41.558Z,86.50
2017-07-17T21:34:09.954Z,87.20
2017-07-17T21:36:39.118Z,87.70
2017-07-17T21:39:07.526Z,87.60
2017-07-17T21:41:36.670Z,86.70
2017-07-17T21:44:05.085Z,86.70
2017-07-17T21:46:33.495Z,87.00
2017-07-17T21:49:01.888Z,87.30
2017-07-17T21:51:30.257Z,86.90
2017-07-17T21:53:58.681Z,87.10
2017-07-17T21:56:27.085Z,87.20
2017-07-17T21:58:55.486Z,87.60
2017-07-17T22:01:24.641Z,89.50
2017-07-17T22:03:53.039Z,89.50
2017-07-17T22:06:21.436Z,89.50
2017-07-17T22:08:50.618Z,89.30
2017-07-17T22:11:19.790Z,90.10
2017-07-17T22:13:48.171Z,89.50
2017-07-17T22:16:16.583Z,89.80
2017-07-17T22:18:45.738Z,90.60
2017-07-17T22:21:14.136Z,90.60
2017-07-17T22:23:42.544Z,90.70
2017-07-17T22:26:11.684Z,91.30
2017-07-17T22:28:39.887Z,91.20
2017-07-17T22:31:08.329Z,90.80
2017-07-17T22:33:36.760Z,91.20
2017-07-17T22:36:05.930Z,91.50
2017-07-17T22:38:34.357Z,91.50
2017-07-17T22:41:02.768Z,91.90
2017-07-17T22:43:31.183Z,91.90
2017-07-17T22:46:00.387Z,92.90
2017-07-17T22:48:29.558Z,93.50
2017-07-17T22:50:57.960Z,93.40
2017-07-17T22:53:26.382Z,93.60
2017-07-17T22:55:54.772Z,94.10
2017-07-17T22:58:23.161Z,94.40
2017-07-17T23:00:51.594Z,94.60
2017-07-17T23:03:19.976Z,95.10
2017-07-17T23:05:48.384Z,95.30
2017-07-17T23:08:16.790Z,95.90
2017-07-17T23:10:45.193Z,96.00
2017-07-17T23:13:14.358Z,96.20
2017-07-17T23:15:42.766Z,96.10
2017-07-17T23:18:11.938Z,96.60
2017-07-17T23:20:40.345Z,96.60
2017-07-17T23:23:09.513Z,97.50
2017-07-17T23:25:37.914Z,97.50
2017-07-17T23:28:07.079Z,97.50
2017-07-17T23:30:35.490Z,97.20
2017-07-17T23:33:03.892Z,97.90
2017-07-17T23:35:32.277Z,98.00
2017-07-17T23:38:00.702Z,98.20
2017-07-17T23:40:29.115Z,98.20
2017-07-17T23:42:58.305Z,98.30
2017-07-17T23:45:26.768Z,98.20
2017-07-17T23:47:55.168Z,98.30
2017-07-17T23:50:23.579Z,98.80
2017-07-17T23:52:52.011Z,98.80
2017-07-17T23:55:21.198Z,99.30
2017-07-17T23:57:49.599Z,99.30
